sensor_id;sensor_type;location;lat;lon;timestamp;P1;durP1;ratioP1;P2;durP2;ratioP2
5085;SDS011;4715;51.660;7.082;2023-04-24T00:01:12;1.30;;;1.20;;
5085;SDS011;4715;51.660;7.082;2023-04-24T00:03:35;1.70;;;1.13;;
5085;SDS011;4715;51.660;7.082;2023-04-24T00:05:58;1.70;;;1.00;;
5085;SDS011;4715;51.660;7.082;2023-04-24T00:08:21;1.30;;;1.20;;
5085;SDS011;4715;51.660;7.082;2023-04-24T00:10:43;4.70;;;1.70;;
5085;SDS011;4715;51.660;7.082;2023-04-24T00:13:07;2.50;;;1.50;;
5085;SDS011;4715;51.660;7.082;2023-04-24T00:15:29;5.77;;;1.30;;
5085;SDS011;4715;51.660;7.082;2023-04-24T00:17:51;1.40;;;1.23;;
5085;SDS011;4715;51.660;7.082;2023-04-24T00:20:13;1.57;;;1.47;;
5085;SDS011;4715;51.660;7.082;2023-04-24T00:22:35;1.83;;;1.17;;
5085;SDS011;4715;51.660;7.082;2023-04-24T00:24:57;1.47;;;1.40;;
5085;SDS011;4715;51.660;7.082;2023-04-24T00:27:19;1.50;;;1.40;;
5085;SDS011;4715;51.660;7.082;2023-04-24T00:29:42;1.40;;;1.27;;
5085;SDS011;4715;51.660;7.082;2023-04-24T00:32:04;1.50;;;1.40;;
5085;SDS011;4715;51.660;7.082;2023-04-24T00:34:26;2.40;;;1.47;;
5085;SDS011;4715;51.660;7.082;2023-04-24T00:36:48;2.33;;;2.13;;
5085;SDS011;4715;51.660;7.082;2023-04-24T00:39:12;2.93;;;1.63;;
5085;SDS011;4715;51.660;7.082;2023-04-24T00:41:34;1.40;;;1.30;;
5085;SDS011;4715;51.660;7.082;2023-04-24T00:43:56;1.60;;;1.47;;
5085;SDS011;4715;51.660;7.082;2023-04-24T00:46:19;1.97;;;1.50;;
5085;SDS011;4715;51.660;7.082;2023-04-24T00:48:42;1.57;;;1.47;;
5085;SDS011;4715;51.660;7.082;2023-04-24T00:51:04;1.60;;;1.50;;
5085;SDS011;4715;51.660;7.082;2023-04-24T00:53:26;1.83;;;1.73;;
5085;SDS011;4715;51.660;7.082;2023-04-24T00:55:48;1.10;;;1.10;;
5085;SDS011;4715;51.660;7.082;2023-04-24T00:58:10;3.30;;;1.50;;
5085;SDS011;4715;51.660;7.082;2023-04-24T01:00:32;1.90;;;1.80;;
5085;SDS011;4715;51.660;7.082;2023-04-24T01:02:55;1.80;;;1.60;;
5085;SDS011;4715;51.660;7.082;2023-04-24T01:05:18;4.10;;;1.57;;
5085;SDS011;4715;51.660;7.082;2023-04-24T01:07:40;2.03;;;1.93;;
5085;SDS011;4715;51.660;7.082;2023-04-24T01:10:06;3.70;;;1.87;;
5085;SDS011;4715;51.660;7.082;2023-04-24T01:12:29;1.77;;;1.67;;
5085;SDS011;4715;51.660;7.082;2023-04-24T01:14:51;2.43;;;2.23;;
5085;SDS011;4715;51.660;7.082;2023-04-24T01:17:20;4.83;;;1.90;;
5085;SDS011;4715;51.660;7.082;2023-04-24T01:19:44;2.20;;;2.10;;
5085;SDS011;4715;51.660;7.082;2023-04-24T01:22:11;1.90;;;1.80;;
5085;SDS011;4715;51.660;7.082;2023-04-24T01:24:34;3.20;;;2.90;;
5085;SDS011;4715;51.660;7.082;2023-04-24T01:26:56;5.20;;;1.90;;
5085;SDS011;4715;51.660;7.082;2023-04-24T01:29:18;2.20;;;2.10;;
5085;SDS011;4715;51.660;7.082;2023-04-24T01:31:40;2.57;;;2.00;;
5085;SDS011;4715;51.660;7.082;2023-04-24T01:34:02;1.70;;;1.60;;
5085;SDS011;4715;51.660;7.082;2023-04-24T01:36:25;2.63;;;1.73;;
5085;SDS011;4715;51.660;7.082;2023-04-24T01:38:51;2.40;;;2.20;;
5085;SDS011;4715;51.660;7.082;2023-04-24T01:41:12;2.57;;;2.40;;
5085;SDS011;4715;51.660;7.082;2023-04-24T01:43:36;3.50;;;2.47;;
5085;SDS011;4715;51.660;7.082;2023-04-24T01:45:58;2.80;;;2.60;;
5085;SDS011;4715;51.660;7.082;2023-04-24T01:48:20;3.30;;;3.10;;
5085;SDS011;4715;51.660;7.082;2023-04-24T01:50:42;3.20;;;3.00;;
5085;SDS011;4715;51.660;7.082;2023-04-24T01:53:04;4.17;;;3.60;;
5085;SDS011;4715;51.660;7.082;2023-04-24T01:55:27;3.90;;;3.50;;
5085;SDS011;4715;51.660;7.082;2023-04-24T01:57:49;3.73;;;3.43;;
5085;SDS011;4715;51.660;7.082;2023-04-24T02:00:13;7.60;;;4.10;;
5085;SDS011;4715;51.660;7.082;2023-04-24T02:02:35;5.10;;;4.60;;
5085;SDS011;4715;51.660;7.082;2023-04-24T02:04:57;4.93;;;4.53;;
5085;SDS011;4715;51.660;7.082;2023-04-24T02:07:19;8.63;;;4.53;;
5085;SDS011;4715;51.660;7.082;2023-04-24T02:09:41;5.17;;;4.50;;
5085;SDS011;4715;51.660;7.082;2023-04-24T02:12:04;4.67;;;4.37;;
5085;SDS011;4715;51.660;7.082;2023-04-24T02:14:26;4.77;;;4.40;;
5085;SDS011;4715;51.660;7.082;2023-04-24T02:16:48;4.53;;;4.13;;
5085;SDS011;4715;51.660;7.082;2023-04-24T02:19:10;5.73;;;5.20;;
5085;SDS011;4715;51.660;7.082;2023-04-24T02:21:32;6.03;;;5.33;;
5085;SDS011;4715;51.660;7.082;2023-04-24T02:23:57;6.00;;;5.10;;
5085;SDS011;4715;51.660;7.082;2023-04-24T02:26:19;5.63;;;5.13;;
5085;SDS011;4715;51.660;7.082;2023-04-24T02:28:42;5.80;;;4.77;;
5085;SDS011;4715;51.660;7.082;2023-04-24T02:31:04;5.70;;;5.13;;
5085;SDS011;4715;51.660;7.082;2023-04-24T02:33:26;5.43;;;5.00;;
5085;SDS011;4715;51.660;7.082;2023-04-24T02:35:48;10.60;;;6.00;;
5085;SDS011;4715;51.660;7.082;2023-04-24T02:38:09;6.97;;;5.17;;
5085;SDS011;4715;51.660;7.082;2023-04-24T02:40:31;6.80;;;5.40;;
5085;SDS011;4715;51.660;7.082;2023-04-24T02:42:53;5.80;;;5.30;;
5085;SDS011;4715;51.660;7.082;2023-04-24T02:45:16;5.33;;;4.70;;
5085;SDS011;4715;51.660;7.082;2023-04-24T02:47:38;7.13;;;6.20;;
5085;SDS011;4715;51.660;7.082;2023-04-24T02:50:00;7.47;;;6.47;;
5085;SDS011;4715;51.660;7.082;2023-04-24T02:52:22;8.00;;;6.80;;
5085;SDS011;4715;51.660;7.082;2023-04-24T02:54:44;9.70;;;6.33;;
5085;SDS011;4715;51.660;7.082;2023-04-24T02:57:06;8.87;;;7.97;;
5085;SDS011;4715;51.660;7.082;2023-04-24T02:59:28;9.47;;;7.10;;
5085;SDS011;4715;51.660;7.082;2023-04-24T03:01:51;9.57;;;7.17;;
5085;SDS011;4715;51.660;7.082;2023-04-24T03:04:13;12.30;;;9.43;;
5085;SDS011;4715;51.660;7.082;2023-04-24T03:06:35;12.90;;;8.30;;
5085;SDS011;4715;51.660;7.082;2023-04-24T03:08:57;14.40;;;9.70;;
5085;SDS011;4715;51.660;7.082;2023-04-24T03:11:19;17.03;;;9.03;;
5085;SDS011;4715;51.660;7.082;2023-04-24T03:13:40;11.73;;;8.37;;
5085;SDS011;4715;51.660;7.082;2023-04-24T03:16:02;12.50;;;9.20;;
5085;SDS011;4715;51.660;7.082;2023-04-24T03:18:27;13.20;;;9.20;;
5085;SDS011;4715;51.660;7.082;2023-04-24T03:20:49;13.20;;;9.83;;
5085;SDS011;4715;51.660;7.082;2023-04-24T03:23:11;12.80;;;9.50;;
5085;SDS011;4715;51.660;7.082;2023-04-24T03:25:32;13.83;;;9.30;;
5085;SDS011;4715;51.660;7.082;2023-04-24T03:27:54;12.17;;;10.17;;
5085;SDS011;4715;51.660;7.082;2023-04-24T03:30:16;19.27;;;10.13;;
5085;SDS011;4715;51.660;7.082;2023-04-24T03:32:38;14.67;;;9.90;;
5085;SDS011;4715;51.660;7.082;2023-04-24T03:35:01;13.00;;;9.80;;
5085;SDS011;4715;51.660;7.082;2023-04-24T03:37:23;10.57;;;9.00;;
5085;SDS011;4715;51.660;7.082;2023-04-24T03:39:46;13.10;;;9.53;;
5085;SDS011;4715;51.660;7.082;2023-04-24T03:42:08;17.63;;;11.00;;
5085;SDS011;4715;51.660;7.082;2023-04-24T03:44:30;17.90;;;11.10;;
5085;SDS011;4715;51.660;7.082;2023-04-24T03:46:52;15.60;;;11.23;;
5085;SDS011;4715;51.660;7.082;2023-04-24T03:49:13;11.60;;;10.27;;
5085;SDS011;4715;51.660;7.082;2023-04-24T03:51:37;12.83;;;10.30;;
5085;SDS011;4715;51.660;7.082;2023-04-24T03:53:59;14.93;;;10.40;;
5085;SDS011;4715;51.660;7.082;2023-04-24T03:56:20;12.87;;;10.47;;
5085;SDS011;4715;51.660;7.082;2023-04-24T03:58:42;11.63;;;10.00;;
5085;SDS011;4715;51.660;7.082;2023-04-24T04:01:04;20.97;;;12.80;;
5085;SDS011;4715;51.660;7.082;2023-04-24T04:03:26;19.67;;;11.57;;
5085;SDS011;4715;51.660;7.082;2023-04-24T04:05:48;15.80;;;12.07;;
5085;SDS011;4715;51.660;7.082;2023-04-24T04:08:11;14.27;;;10.60;;
5085;SDS011;4715;51.660;7.082;2023-04-24T04:10:33;17.80;;;10.87;;
5085;SDS011;4715;51.660;7.082;2023-04-24T04:12:55;19.27;;;11.67;;
5085;SDS011;4715;51.660;7.082;2023-04-24T04:15:18;17.53;;;12.73;;
5085;SDS011;4715;51.660;7.082;2023-04-24T04:17:39;16.87;;;12.10;;
5085;SDS011;4715;51.660;7.082;2023-04-24T04:20:01;12.40;;;9.30;;
5085;SDS011;4715;51.660;7.082;2023-04-24T04:22:27;16.20;;;11.10;;
5085;SDS011;4715;51.660;7.082;2023-04-24T04:24:50;16.10;;;11.47;;
5085;SDS011;4715;51.660;7.082;2023-04-24T04:27:13;17.13;;;11.50;;
5085;SDS011;4715;51.660;7.082;2023-04-24T04:29:36;17.70;;;11.90;;
5085;SDS011;4715;51.660;7.082;2023-04-24T04:31:58;16.43;;;12.67;;
5085;SDS011;4715;51.660;7.082;2023-04-24T04:34:21;16.07;;;11.23;;
5085;SDS011;4715;51.660;7.082;2023-04-24T04:36:43;18.53;;;11.90;;
5085;SDS011;4715;51.660;7.082;2023-04-24T04:39:06;16.93;;;11.23;;
5085;SDS011;4715;51.660;7.082;2023-04-24T04:41:29;16.63;;;10.20;;
5085;SDS011;4715;51.660;7.082;2023-04-24T04:43:52;12.70;;;9.20;;
5085;SDS011;4715;51.660;7.082;2023-04-24T04:46:13;18.47;;;11.50;;
5085;SDS011;4715;51.660;7.082;2023-04-24T04:48:36;16.00;;;10.80;;
5085;SDS011;4715;51.660;7.082;2023-04-24T04:50:59;11.83;;;10.23;;
5085;SDS011;4715;51.660;7.082;2023-04-24T04:53:21;13.60;;;10.63;;
5085;SDS011;4715;51.660;7.082;2023-04-24T04:55:43;14.00;;;11.40;;
5085;SDS011;4715;51.660;7.082;2023-04-24T04:58:08;12.17;;;10.83;;
5085;SDS011;4715;51.660;7.082;2023-04-24T05:00:29;14.83;;;10.50;;
5085;SDS011;4715;51.660;7.082;2023-04-24T05:02:55;11.90;;;9.87;;
5085;SDS011;4715;51.660;7.082;2023-04-24T05:05:17;13.40;;;10.50;;
5085;SDS011;4715;51.660;7.082;2023-04-24T05:07:39;13.27;;;9.63;;
5085;SDS011;4715;51.660;7.082;2023-04-24T05:10:01;14.83;;;10.97;;
5085;SDS011;4715;51.660;7.082;2023-04-24T05:12:23;14.87;;;10.23;;
5085;SDS011;4715;51.660;7.082;2023-04-24T05:14:47;16.67;;;10.90;;
5085;SDS011;4715;51.660;7.082;2023-04-24T05:17:09;15.83;;;10.73;;
5085;SDS011;4715;51.660;7.082;2023-04-24T05:19:31;11.93;;;9.40;;
5085;SDS011;4715;51.660;7.082;2023-04-24T05:21:55;9.33;;;8.43;;
5085;SDS011;4715;51.660;7.082;2023-04-24T05:24:17;9.97;;;8.97;;
5085;SDS011;4715;51.660;7.082;2023-04-24T05:26:39;15.57;;;9.20;;
5085;SDS011;4715;51.660;7.082;2023-04-24T05:29:01;12.40;;;9.70;;
5085;SDS011;4715;51.660;7.082;2023-04-24T05:31:25;10.23;;;9.33;;
5085;SDS011;4715;51.660;7.082;2023-04-24T05:33:47;18.33;;;9.70;;
5085;SDS011;4715;51.660;7.082;2023-04-24T05:36:11;12.70;;;9.80;;
5085;SDS011;4715;51.660;7.082;2023-04-24T05:38:33;14.27;;;8.93;;
5085;SDS011;4715;51.660;7.082;2023-04-24T05:40:55;9.37;;;8.27;;
5085;SDS011;4715;51.660;7.082;2023-04-24T05:43:16;11.00;;;8.60;;
5085;SDS011;4715;51.660;7.082;2023-04-24T05:45:38;13.83;;;9.17;;
5085;SDS011;4715;51.660;7.082;2023-04-24T05:48:02;13.03;;;10.70;;
5085;SDS011;4715;51.660;7.082;2023-04-24T05:50:24;18.30;;;11.50;;
5085;SDS011;4715;51.660;7.082;2023-04-24T05:52:45;11.13;;;8.90;;
5085;SDS011;4715;51.660;7.082;2023-04-24T05:55:08;10.03;;;8.87;;
5085;SDS011;4715;51.660;7.082;2023-04-24T05:57:29;7.90;;;7.20;;
5085;SDS011;4715;51.660;7.082;2023-04-24T05:59:52;9.30;;;8.40;;
5085;SDS011;4715;51.660;7.082;2023-04-24T06:02:13;11.10;;;9.33;;
5085;SDS011;4715;51.660;7.082;2023-04-24T06:04:37;12.03;;;9.07;;
5085;SDS011;4715;51.660;7.082;2023-04-24T06:06:58;11.90;;;9.70;;
5085;SDS011;4715;51.660;7.082;2023-04-24T06:09:20;9.73;;;8.87;;
5085;SDS011;4715;51.660;7.082;2023-04-24T06:11:42;12.90;;;10.80;;
5085;SDS011;4715;51.660;7.082;2023-04-24T06:14:04;15.20;;;9.10;;
5085;SDS011;4715;51.660;7.082;2023-04-24T06:16:26;11.17;;;9.10;;
5085;SDS011;4715;51.660;7.082;2023-04-24T06:18:49;11.43;;;9.00;;
5085;SDS011;4715;51.660;7.082;2023-04-24T06:21:13;11.30;;;9.00;;
5085;SDS011;4715;51.660;7.082;2023-04-24T06:23:38;10.57;;;9.00;;
5085;SDS011;4715;51.660;7.082;2023-04-24T06:26:00;10.57;;;8.50;;
5085;SDS011;4715;51.660;7.082;2023-04-24T06:28:22;10.70;;;9.37;;
5085;SDS011;4715;51.660;7.082;2023-04-24T06:30:44;9.77;;;8.80;;
5085;SDS011;4715;51.660;7.082;2023-04-24T06:33:05;9.83;;;8.83;;
5085;SDS011;4715;51.660;7.082;2023-04-24T06:35:27;12.40;;;9.97;;
5085;SDS011;4715;51.660;7.082;2023-04-24T06:37:50;11.00;;;9.23;;
5085;SDS011;4715;51.660;7.082;2023-04-24T06:40:12;14.83;;;9.50;;
5085;SDS011;4715;51.660;7.082;2023-04-24T06:42:34;10.87;;;9.50;;
5085;SDS011;4715;51.660;7.082;2023-04-24T06:44:56;11.07;;;8.17;;
5085;SDS011;4715;51.660;7.082;2023-04-24T06:47:18;10.07;;;9.10;;
5085;SDS011;4715;51.660;7.082;2023-04-24T06:49:41;11.40;;;10.07;;
5085;SDS011;4715;51.660;7.082;2023-04-24T06:52:03;11.13;;;8.80;;
5085;SDS011;4715;51.660;7.082;2023-04-24T06:54:44;8.43;;;7.63;;
5085;SDS011;4715;51.660;7.082;2023-04-24T06:57:06;7.40;;;6.57;;
5085;SDS011;4715;51.660;7.082;2023-04-24T06:59:29;9.90;;;8.00;;
5085;SDS011;4715;51.660;7.082;2023-04-24T07:01:51;7.70;;;6.90;;
5085;SDS011;4715;51.660;7.082;2023-04-24T07:04:13;9.20;;;8.17;;
5085;SDS011;4715;51.660;7.082;2023-04-24T07:06:35;9.27;;;8.33;;
5085;SDS011;4715;51.660;7.082;2023-04-24T07:09:06;7.70;;;7.00;;
5085;SDS011;4715;51.660;7.082;2023-04-24T07:11:31;7.10;;;6.50;;
5085;SDS011;4715;51.660;7.082;2023-04-24T07:13:53;8.33;;;6.40;;
5085;SDS011;4715;51.660;7.082;2023-04-24T07:16:15;10.43;;;6.73;;
5085;SDS011;4715;51.660;7.082;2023-04-24T07:18:36;7.97;;;7.20;;
5085;SDS011;4715;51.660;7.082;2023-04-24T07:21:00;7.33;;;6.70;;
5085;SDS011;4715;51.660;7.082;2023-04-24T07:23:22;6.93;;;6.07;;
5085;SDS011;4715;51.660;7.082;2023-04-24T07:25:43;6.57;;;5.33;;
5085;SDS011;4715;51.660;7.082;2023-04-24T07:28:06;6.87;;;6.27;;
5085;SDS011;4715;51.660;7.082;2023-04-24T07:30:29;6.53;;;5.57;;
5085;SDS011;4715;51.660;7.082;2023-04-24T07:32:54;6.13;;;5.63;;
5085;SDS011;4715;51.660;7.082;2023-04-24T07:35:16;5.90;;;5.40;;
5085;SDS011;4715;51.660;7.082;2023-04-24T07:37:38;6.50;;;5.73;;
5085;SDS011;4715;51.660;7.082;2023-04-24T07:40:00;6.20;;;5.67;;
5085;SDS011;4715;51.660;7.082;2023-04-24T07:42:23;5.17;;;4.77;;
5085;SDS011;4715;51.660;7.082;2023-04-24T07:44:46;4.30;;;4.00;;
5085;SDS011;4715;51.660;7.082;2023-04-24T07:47:09;4.80;;;4.10;;
5085;SDS011;4715;51.660;7.082;2023-04-24T07:49:31;5.20;;;4.70;;
5085;SDS011;4715;51.660;7.082;2023-04-24T07:51:54;4.60;;;4.20;;
5085;SDS011;4715;51.660;7.082;2023-04-24T07:54:16;4.77;;;3.93;;
5085;SDS011;4715;51.660;7.082;2023-04-24T07:56:38;5.20;;;4.20;;
5085;SDS011;4715;51.660;7.082;2023-04-24T07:59:00;4.43;;;4.13;;
5085;SDS011;4715;51.660;7.082;2023-04-24T08:01:37;3.97;;;3.57;;
5085;SDS011;4715;51.660;7.082;2023-04-24T08:03:59;3.90;;;3.50;;
5085;SDS011;4715;51.660;7.082;2023-04-24T08:06:21;3.87;;;3.57;;
5085;SDS011;4715;51.660;7.082;2023-04-24T08:08:43;2.90;;;2.70;;
5085;SDS011;4715;51.660;7.082;2023-04-24T08:11:05;2.63;;;2.53;;
5085;SDS011;4715;51.660;7.082;2023-04-24T08:13:27;3.00;;;2.80;;
5085;SDS011;4715;51.660;7.082;2023-04-24T08:15:49;5.50;;;2.83;;
5085;SDS011;4715;51.660;7.082;2023-04-24T08:18:12;2.80;;;2.60;;
5085;SDS011;4715;51.660;7.082;2023-04-24T08:20:36;2.60;;;2.40;;
5085;SDS011;4715;51.660;7.082;2023-04-24T08:22:57;2.00;;;1.90;;
5085;SDS011;4715;51.660;7.082;2023-04-24T08:25:19;2.60;;;2.43;;
5085;SDS011;4715;51.660;7.082;2023-04-24T08:27:43;2.80;;;2.60;;
5085;SDS011;4715;51.660;7.082;2023-04-24T08:30:05;2.67;;;2.57;;
5085;SDS011;4715;51.660;7.082;2023-04-24T08:32:28;2.50;;;2.40;;
5085;SDS011;4715;51.660;7.082;2023-04-24T08:34:52;2.87;;;2.67;;
5085;SDS011;4715;51.660;7.082;2023-04-24T08:37:16;2.50;;;2.40;;
5085;SDS011;4715;51.660;7.082;2023-04-24T08:39:38;3.20;;;2.23;;
5085;SDS011;4715;51.660;7.082;2023-04-24T08:41:59;3.20;;;2.90;;
5085;SDS011;4715;51.660;7.082;2023-04-24T08:44:27;3.10;;;2.80;;
5085;SDS011;4715;51.660;7.082;2023-04-24T08:46:49;2.70;;;2.60;;
5085;SDS011;4715;51.660;7.082;2023-04-24T08:49:12;2.40;;;2.30;;
5085;SDS011;4715;51.660;7.082;2023-04-24T08:51:37;2.80;;;2.60;;
5085;SDS011;4715;51.660;7.082;2023-04-24T08:54:00;2.27;;;2.17;;
5085;SDS011;4715;51.660;7.082;2023-04-24T08:56:23;2.57;;;2.47;;
5085;SDS011;4715;51.660;7.082;2023-04-24T08:58:46;4.13;;;3.53;;
5085;SDS011;4715;51.660;7.082;2023-04-24T09:01:08;2.30;;;2.10;;
5085;SDS011;4715;51.660;7.082;2023-04-24T09:03:30;2.83;;;2.63;;
5085;SDS011;4715;51.660;7.082;2023-04-24T09:05:54;5.37;;;2.33;;
5085;SDS011;4715;51.660;7.082;2023-04-24T09:08:19;1.80;;;1.70;;
5085;SDS011;4715;51.660;7.082;2023-04-24T09:10:41;2.57;;;2.37;;
5085;SDS011;4715;51.660;7.082;2023-04-24T09:13:03;2.20;;;2.00;;
5085;SDS011;4715;51.660;7.082;2023-04-24T09:15:25;2.00;;;1.90;;
5085;SDS011;4715;51.660;7.082;2023-04-24T09:17:47;2.00;;;1.90;;
5085;SDS011;4715;51.660;7.082;2023-04-24T09:20:10;2.07;;;1.97;;
5085;SDS011;4715;51.660;7.082;2023-04-24T09:22:32;2.00;;;1.90;;
5085;SDS011;4715;51.660;7.082;2023-04-24T09:25:01;2.03;;;1.93;;
5085;SDS011;4715;51.660;7.082;2023-04-24T09:27:24;1.70;;;1.60;;
5085;SDS011;4715;51.660;7.082;2023-04-24T09:29:53;1.83;;;1.73;;
5085;SDS011;4715;51.660;7.082;2023-04-24T09:32:19;2.57;;;2.23;;
5085;SDS011;4715;51.660;7.082;2023-04-24T09:34:42;1.90;;;1.73;;
5085;SDS011;4715;51.660;7.082;2023-04-24T09:37:04;2.23;;;2.13;;
5085;SDS011;4715;51.660;7.082;2023-04-24T09:39:26;1.97;;;1.87;;
5085;SDS011;4715;51.660;7.082;2023-04-24T09:41:50;3.10;;;2.40;;
5085;SDS011;4715;51.660;7.082;2023-04-24T09:44:15;4.00;;;2.00;;
5085;SDS011;4715;51.660;7.082;2023-04-24T09:46:37;2.93;;;2.73;;
5085;SDS011;4715;51.660;7.082;2023-04-24T09:49:07;3.50;;;3.10;;
5085;SDS011;4715;51.660;7.082;2023-04-24T09:51:34;3.90;;;3.70;;
5085;SDS011;4715;51.660;7.082;2023-04-24T09:53:58;4.00;;;3.70;;
5085;SDS011;4715;51.660;7.082;2023-04-24T09:56:20;2.83;;;2.73;;
5085;SDS011;4715;51.660;7.082;2023-04-24T09:58:44;3.60;;;2.90;;
5085;SDS011;4715;51.660;7.082;2023-04-24T10:01:08;2.70;;;2.50;;
5085;SDS011;4715;51.660;7.082;2023-04-24T10:03:30;3.57;;;2.90;;
5085;SDS011;4715;51.660;7.082;2023-04-24T10:05:52;3.77;;;3.47;;
5085;SDS011;4715;51.660;7.082;2023-04-24T10:08:15;5.83;;;3.40;;
5085;SDS011;4715;51.660;7.082;2023-04-24T10:10:38;3.83;;;3.43;;
5085;SDS011;4715;51.660;7.082;2023-04-24T10:13:01;4.10;;;3.70;;
5085;SDS011;4715;51.660;7.082;2023-04-24T10:15:25;5.23;;;4.73;;
5085;SDS011;4715;51.660;7.082;2023-04-24T10:17:48;4.60;;;3.57;;
5085;SDS011;4715;51.660;7.082;2023-04-24T10:20:13;5.03;;;3.50;;
5085;SDS011;4715;51.660;7.082;2023-04-24T10:22:35;5.23;;;4.83;;
5085;SDS011;4715;51.660;7.082;2023-04-24T10:24:58;5.20;;;4.03;;
5085;SDS011;4715;51.660;7.082;2023-04-24T10:27:20;4.40;;;4.10;;
5085;SDS011;4715;51.660;7.082;2023-04-24T10:29:44;4.40;;;4.03;;
5085;SDS011;4715;51.660;7.082;2023-04-24T10:32:09;4.90;;;4.50;;
5085;SDS011;4715;51.660;7.082;2023-04-24T10:34:32;5.73;;;5.03;;
5085;SDS011;4715;51.660;7.082;2023-04-24T10:36:57;4.70;;;4.30;;
5085;SDS011;4715;51.660;7.082;2023-04-24T10:39:19;6.60;;;4.70;;
5085;SDS011;4715;51.660;7.082;2023-04-24T10:41:42;6.27;;;5.57;;
5085;SDS011;4715;51.660;7.082;2023-04-24T10:44:05;6.93;;;4.23;;
5085;SDS011;4715;51.660;7.082;2023-04-24T10:46:29;4.93;;;4.43;;
5085;SDS011;4715;51.660;7.082;2023-04-24T10:48:53;6.23;;;4.57;;
5085;SDS011;4715;51.660;7.082;2023-04-24T10:51:15;5.30;;;4.60;;
5085;SDS011;4715;51.660;7.082;2023-04-24T10:53:37;4.80;;;4.40;;
5085;SDS011;4715;51.660;7.082;2023-04-24T10:56:02;10.90;;;4.57;;
5085;SDS011;4715;51.660;7.082;2023-04-24T10:58:36;6.93;;;4.57;;
5085;SDS011;4715;51.660;7.082;2023-04-24T11:01:00;7.17;;;3.17;;
5085;SDS011;4715;51.660;7.082;2023-04-24T11:03:23;6.90;;;4.60;;
5085;SDS011;4715;51.660;7.082;2023-04-24T11:05:55;7.07;;;4.40;;
5085;SDS011;4715;51.660;7.082;2023-04-24T11:08:21;6.40;;;3.93;;
5085;SDS011;4715;51.660;7.082;2023-04-24T11:10:55;11.77;;;4.97;;
5085;SDS011;4715;51.660;7.082;2023-04-24T11:13:21;12.90;;;4.30;;
5085;SDS011;4715;51.660;7.082;2023-04-24T11:15:44;9.40;;;3.73;;
5085;SDS011;4715;51.660;7.082;2023-04-24T11:18:26;6.07;;;4.60;;
5085;SDS011;4715;51.660;7.082;2023-04-24T11:21:02;8.00;;;4.13;;
5085;SDS011;4715;51.660;7.082;2023-04-24T11:23:35;4.13;;;3.70;;
5085;SDS011;4715;51.660;7.082;2023-04-24T11:26:09;7.37;;;4.50;;
5085;SDS011;4715;51.660;7.082;2023-04-24T11:28:34;12.20;;;4.20;;
5085;SDS011;4715;51.660;7.082;2023-04-24T11:30:56;9.70;;;4.20;;
5085;SDS011;4715;51.660;7.082;2023-04-24T11:33:19;9.43;;;3.90;;
5085;SDS011;4715;51.660;7.082;2023-04-24T11:35:41;9.03;;;4.40;;
5085;SDS011;4715;51.660;7.082;2023-04-24T11:38:05;8.17;;;4.10;;
5085;SDS011;4715;51.660;7.082;2023-04-24T11:40:28;10.53;;;5.40;;
5085;SDS011;4715;51.660;7.082;2023-04-24T11:42:51;12.53;;;4.70;;
5085;SDS011;4715;51.660;7.082;2023-04-24T11:45:21;6.83;;;3.90;;
5085;SDS011;4715;51.660;7.082;2023-04-24T11:47:44;9.63;;;5.27;;
5085;SDS011;4715;51.660;7.082;2023-04-24T11:50:07;4.17;;;3.80;;
5085;SDS011;4715;51.660;7.082;2023-04-24T11:52:30;8.00;;;4.60;;
5085;SDS011;4715;51.660;7.082;2023-04-24T11:54:55;5.87;;;4.10;;
5085;SDS011;4715;51.660;7.082;2023-04-24T11:57:19;7.30;;;3.80;;
5085;SDS011;4715;51.660;7.082;2023-04-24T11:59:41;4.13;;;3.73;;
5085;SDS011;4715;51.660;7.082;2023-04-24T12:02:03;6.60;;;3.27;;
5085;SDS011;4715;51.660;7.082;2023-04-24T12:04:26;8.63;;;3.30;;
5085;SDS011;4715;51.660;7.082;2023-04-24T12:07:00;6.20;;;4.33;;
5085;SDS011;4715;51.660;7.082;2023-04-24T12:09:22;6.77;;;3.40;;
5085;SDS011;4715;51.660;7.082;2023-04-24T12:11:53;9.23;;;3.03;;
5085;SDS011;4715;51.660;7.082;2023-04-24T12:14:16;5.93;;;3.80;;
5085;SDS011;4715;51.660;7.082;2023-04-24T12:16:38;13.00;;;3.50;;
5085;SDS011;4715;51.660;7.082;2023-04-24T12:19:01;4.67;;;2.60;;
5085;SDS011;4715;51.660;7.082;2023-04-24T12:21:23;4.43;;;2.50;;
5085;SDS011;4715;51.660;7.082;2023-04-24T12:27:08;3.90;;;2.90;;
5085;SDS011;4715;51.660;7.082;2023-04-24T12:29:50;5.80;;;3.17;;
5085;SDS011;4715;51.660;7.082;2023-04-24T12:32:15;6.03;;;2.93;;
5085;SDS011;4715;51.660;7.082;2023-04-24T12:34:37;3.50;;;2.87;;
5085;SDS011;4715;51.660;7.082;2023-04-24T12:37:09;4.90;;;2.60;;
5085;SDS011;4715;51.660;7.082;2023-04-24T12:39:31;5.10;;;2.73;;
5085;SDS011;4715;51.660;7.082;2023-04-24T12:41:56;5.10;;;2.67;;
5085;SDS011;4715;51.660;7.082;2023-04-24T12:44:28;6.27;;;2.80;;
5085;SDS011;4715;51.660;7.082;2023-04-24T12:46:50;3.83;;;2.13;;
5085;SDS011;4715;51.660;7.082;2023-04-24T12:49:12;3.33;;;3.00;;
5085;SDS011;4715;51.660;7.082;2023-04-24T12:51:34;3.60;;;2.77;;
5085;SDS011;4715;51.660;7.082;2023-04-24T12:53:56;4.60;;;2.50;;
5085;SDS011;4715;51.660;7.082;2023-04-24T12:56:18;4.77;;;2.90;;
5085;SDS011;4715;51.660;7.082;2023-04-24T12:58:40;5.43;;;2.70;;
5085;SDS011;4715;51.660;7.082;2023-04-24T13:01:04;2.73;;;2.50;;
5085;SDS011;4715;51.660;7.082;2023-04-24T13:03:26;7.37;;;3.10;;
5085;SDS011;4715;51.660;7.082;2023-04-24T13:05:47;5.40;;;2.43;;
5085;SDS011;4715;51.660;7.082;2023-04-24T13:08:09;5.77;;;2.37;;
5085;SDS011;4715;51.660;7.082;2023-04-24T13:10:32;5.10;;;2.40;;
5085;SDS011;4715;51.660;7.082;2023-04-24T13:12:56;4.20;;;2.27;;
5085;SDS011;4715;51.660;7.082;2023-04-24T13:15:18;6.30;;;2.73;;
5085;SDS011;4715;51.660;7.082;2023-04-24T13:17:55;7.47;;;2.60;;
5085;SDS011;4715;51.660;7.082;2023-04-24T13:20:23;4.27;;;3.07;;
5085;SDS011;4715;51.660;7.082;2023-04-24T13:22:46;4.63;;;2.40;;
5085;SDS011;4715;51.660;7.082;2023-04-24T13:25:08;3.20;;;1.93;;
5085;SDS011;4715;51.660;7.082;2023-04-24T13:27:30;4.80;;;1.90;;
5085;SDS011;4715;51.660;7.082;2023-04-24T13:29:53;4.80;;;2.07;;
5085;SDS011;4715;51.660;7.082;2023-04-24T13:32:15;6.27;;;2.10;;
5085;SDS011;4715;51.660;7.082;2023-04-24T13:34:39;2.73;;;2.40;;
5085;SDS011;4715;51.660;7.082;2023-04-24T13:37:02;2.60;;;2.40;;
5085;SDS011;4715;51.660;7.082;2023-04-24T13:39:35;2.97;;;2.60;;
5085;SDS011;4715;51.660;7.082;2023-04-24T13:42:03;8.03;;;2.70;;
5085;SDS011;4715;51.660;7.082;2023-04-24T13:44:27;2.37;;;2.17;;
5085;SDS011;4715;51.660;7.082;2023-04-24T13:46:50;2.17;;;2.03;;
5085;SDS011;4715;51.660;7.082;2023-04-24T13:49:17;2.53;;;2.33;;
5085;SDS011;4715;51.660;7.082;2023-04-24T13:51:42;4.67;;;2.60;;
5085;SDS011;4715;51.660;7.082;2023-04-24T13:54:08;2.10;;;1.80;;
5085;SDS011;4715;51.660;7.082;2023-04-24T13:56:33;5.77;;;2.40;;
5085;SDS011;4715;51.660;7.082;2023-04-24T13:58:56;3.13;;;2.80;;
5085;SDS011;4715;51.660;7.082;2023-04-24T14:01:18;3.53;;;2.47;;
5085;SDS011;4715;51.660;7.082;2023-04-24T14:03:41;3.10;;;2.40;;
5085;SDS011;4715;51.660;7.082;2023-04-24T14:06:03;5.23;;;2.50;;
5085;SDS011;4715;51.660;7.082;2023-04-24T14:08:30;2.77;;;2.33;;
5085;SDS011;4715;51.660;7.082;2023-04-24T14:10:52;2.60;;;2.40;;
5085;SDS011;4715;51.660;7.082;2023-04-24T14:13:22;8.00;;;2.60;;
5085;SDS011;4715;51.660;7.082;2023-04-24T14:15:44;2.63;;;2.40;;
5085;SDS011;4715;51.660;7.082;2023-04-24T14:18:06;2.47;;;2.13;;
5085;SDS011;4715;51.660;7.082;2023-04-24T14:20:28;3.97;;;2.53;;
5085;SDS011;4715;51.660;7.082;2023-04-24T14:22:50;2.57;;;2.40;;
5085;SDS011;4715;51.660;7.082;2023-04-24T14:25:14;6.60;;;2.20;;
5085;SDS011;4715;51.660;7.082;2023-04-24T14:27:36;2.00;;;1.90;;
5085;SDS011;4715;51.660;7.082;2023-04-24T14:29:58;6.10;;;2.93;;
5085;SDS011;4715;51.660;7.082;2023-04-24T14:32:20;2.20;;;1.93;;
5085;SDS011;4715;51.660;7.082;2023-04-24T14:34:42;3.47;;;2.27;;
5085;SDS011;4715;51.660;7.082;2023-04-24T14:37:04;2.07;;;1.97;;
5085;SDS011;4715;51.660;7.082;2023-04-24T14:39:26;3.00;;;2.70;;
5085;SDS011;4715;51.660;7.082;2023-04-24T14:41:49;3.30;;;2.70;;
5085;SDS011;4715;51.660;7.082;2023-04-24T14:44:11;3.23;;;2.60;;
5085;SDS011;4715;51.660;7.082;2023-04-24T14:46:32;5.17;;;3.10;;
5085;SDS011;4715;51.660;7.082;2023-04-24T14:48:55;6.60;;;2.60;;